sensor_id;sensor_type;location;lat;lon;timestamp;P1;durP1;ratioP1;P2;durP2;ratioP2
45618;SDS011;31343;47.520;19.144;2022-12-07T00:01:08;15.73;;;9.73;;
45618;SDS011;31343;47.520;19.144;2022-12-07T00:03:36;17.40;;;10.00;;
45618;SDS011;31343;47.520;19.144;2022-12-07T00:06:03;13.77;;;9.00;;
45618;SDS011;31343;47.520;19.144;2022-12-07T00:08:30;17.60;;;10.25;;
45618;SDS011;31343;47.520;19.144;2022-12-07T00:11:03;18.92;;;10.30;;
45618;SDS011;31343;47.520;19.144;2022-12-07T00:13:34;22.05;;;10.45;;
45618;SDS011;31343;47.520;19.144;2022-12-07T00:16:04;15.95;;;10.60;;
45618;SDS011;31343;47.520;19.144;2022-12-07T00:21:01;18.40;;;9.60;;
45618;SDS011;31343;47.520;19.144;2022-12-07T00:23:28;16.75;;;10.23;;
45618;SDS011;31343;47.520;19.144;2022-12-07T00:25:54;17.63;;;9.93;;
45618;SDS011;31343;47.520;19.144;2022-12-07T00:28:20;18.40;;;10.85;;
45618;SDS011;31343;47.520;19.144;2022-12-07T00:30:46;18.98;;;10.43;;
45618;SDS011;31343;47.520;19.144;2022-12-07T00:33:11;18.02;;;10.48;;
45618;SDS011;31343;47.520;19.144;2022-12-07T00:35:37;18.20;;;10.00;;
45618;SDS011;31343;47.520;19.144;2022-12-07T00:38:03;21.08;;;11.52;;
45618;SDS011;31343;47.520;19.144;2022-12-07T00:40:28;19.60;;;11.52;;
45618;SDS011;31343;47.520;19.144;2022-12-07T00:42:54;17.95;;;10.25;;
45618;SDS011;31343;47.520;19.144;2022-12-07T00:45:20;17.45;;;10.75;;
45618;SDS011;31343;47.520;19.144;2022-12-07T00:47:45;20.17;;;11.35;;
45618;SDS011;31343;47.520;19.144;2022-12-07T00:50:11;19.55;;;11.82;;
45618;SDS011;31343;47.520;19.144;2022-12-07T00:52:37;18.83;;;11.77;;
45618;SDS011;31343;47.520;19.144;2022-12-07T00:55:02;20.70;;;11.20;;
45618;SDS011;31343;47.520;19.144;2022-12-07T00:57:29;19.73;;;12.77;;
45618;SDS011;31343;47.520;19.144;2022-12-07T00:59:55;21.65;;;12.10;;
45618;SDS011;31343;47.520;19.144;2022-12-07T01:02:22;17.25;;;11.35;;
45618;SDS011;31343;47.520;19.144;2022-12-07T01:04:48;19.00;;;11.57;;
45618;SDS011;31343;47.520;19.144;2022-12-07T01:07:14;17.70;;;11.05;;
45618;SDS011;31343;47.520;19.144;2022-12-07T01:09:40;23.77;;;13.00;;
45618;SDS011;31343;47.520;19.144;2022-12-07T01:12:05;19.48;;;12.25;;
45618;SDS011;31343;47.520;19.144;2022-12-07T01:14:31;19.02;;;11.93;;
45618;SDS011;31343;47.520;19.144;2022-12-07T01:16:57;23.88;;;12.50;;
45618;SDS011;31343;47.520;19.144;2022-12-07T01:19:23;21.33;;;12.27;;
45618;SDS011;31343;47.520;19.144;2022-12-07T01:21:48;28.27;;;13.27;;
45618;SDS011;31343;47.520;19.144;2022-12-07T01:24:14;25.20;;;14.02;;
45618;SDS011;31343;47.520;19.144;2022-12-07T01:26:41;25.80;;;12.63;;
45618;SDS011;31343;47.520;19.144;2022-12-07T01:29:06;25.20;;;11.27;;
45618;SDS011;31343;47.520;19.144;2022-12-07T01:31:32;20.38;;;11.70;;
45618;SDS011;31343;47.520;19.144;2022-12-07T01:33:58;23.65;;;12.98;;
45618;SDS011;31343;47.520;19.144;2022-12-07T01:36:26;25.10;;;13.77;;
45618;SDS011;31343;47.520;19.144;2022-12-07T01:38:57;25.77;;;14.38;;
45618;SDS011;31343;47.520;19.144;2022-12-07T01:41:26;25.00;;;13.55;;
45618;SDS011;31343;47.520;19.144;2022-12-07T01:46:38;22.83;;;12.70;;
45618;SDS011;31343;47.520;19.144;2022-12-07T01:49:08;23.77;;;11.68;;
45618;SDS011;31343;47.520;19.144;2022-12-07T01:51:39;21.95;;;13.82;;
45618;SDS011;31343;47.520;19.144;2022-12-07T01:54:06;23.42;;;12.82;;
45618;SDS011;31343;47.520;19.144;2022-12-07T01:56:33;23.08;;;13.93;;
45618;SDS011;31343;47.520;19.144;2022-12-07T01:58:59;19.50;;;11.57;;
45618;SDS011;31343;47.520;19.144;2022-12-07T02:01:25;23.52;;;12.93;;
45618;SDS011;31343;47.520;19.144;2022-12-07T02:03:51;19.65;;;13.00;;
45618;SDS011;31343;47.520;19.144;2022-12-07T02:06:19;24.60;;;13.93;;
45618;SDS011;31343;47.520;19.144;2022-12-07T02:08:47;28.67;;;14.90;;
45618;SDS011;31343;47.520;19.144;2022-12-07T02:11:13;23.50;;;13.93;;
45618;SDS011;31343;47.520;19.144;2022-12-07T02:13:40;19.83;;;12.32;;
45618;SDS011;31343;47.520;19.144;2022-12-07T02:24:54;21.42;;;13.00;;
45618;SDS011;31343;47.520;19.144;2022-12-07T02:30:11;22.13;;;14.15;;
45618;SDS011;31343;47.520;19.144;2022-12-07T02:32:40;19.15;;;12.52;;
45618;SDS011;31343;47.520;19.144;2022-12-07T02:35:09;21.58;;;14.02;;
45618;SDS011;31343;47.520;19.144;2022-12-07T02:40:38;24.55;;;15.13;;
45618;SDS011;31343;47.520;19.144;2022-12-07T02:43:35;26.10;;;12.57;;
45618;SDS011;31343;47.520;19.144;2022-12-07T02:46:08;22.48;;;14.48;;
45618;SDS011;31343;47.520;19.144;2022-12-07T02:48:40;21.42;;;14.35;;
45618;SDS011;31343;47.520;19.144;2022-12-07T02:51:08;22.42;;;13.50;;
45618;SDS011;31343;47.520;19.144;2022-12-07T02:53:35;28.88;;;14.27;;
45618;SDS011;31343;47.520;19.144;2022-12-07T02:59:07;23.30;;;14.57;;
45618;SDS011;31343;47.520;19.144;2022-12-07T03:02:06;22.00;;;13.50;;
45618;SDS011;31343;47.520;19.144;2022-12-07T03:15:31;24.02;;;13.70;;
45618;SDS011;31343;47.520;19.144;2022-12-07T03:18:00;28.25;;;13.82;;
45618;SDS011;31343;47.520;19.144;2022-12-07T03:20:29;27.92;;;15.40;;
45618;SDS011;31343;47.520;19.144;2022-12-07T03:22:55;30.17;;;14.65;;
45618;SDS011;31343;47.520;19.144;2022-12-07T03:25:22;25.17;;;14.25;;
45618;SDS011;31343;47.520;19.144;2022-12-07T03:30:23;24.23;;;15.47;;
45618;SDS011;31343;47.520;19.144;2022-12-07T03:33:07;26.30;;;14.88;;
45618;SDS011;31343;47.520;19.144;2022-12-07T03:35:39;26.58;;;14.40;;
45618;SDS011;31343;47.520;19.144;2022-12-07T03:38:21;26.67;;;15.95;;
45618;SDS011;31343;47.520;19.144;2022-12-07T03:40:59;27.83;;;15.35;;
45618;SDS011;31343;47.520;19.144;2022-12-07T03:43:29;24.90;;;15.25;;
45618;SDS011;31343;47.520;19.144;2022-12-07T03:54:39;24.85;;;14.55;;
45618;SDS011;31343;47.520;19.144;2022-12-07T03:56:53;27.98;;;13.77;;
45618;SDS011;31343;47.520;19.144;2022-12-07T03:59:20;28.35;;;14.27;;
45618;SDS011;31343;47.520;19.144;2022-12-07T04:01:54;22.85;;;15.13;;
45618;SDS011;31343;47.520;19.144;2022-12-07T04:04:21;26.88;;;13.02;;
45618;SDS011;31343;47.520;19.144;2022-12-07T04:06:50;22.75;;;14.13;;
45618;SDS011;31343;47.520;19.144;2022-12-07T04:09:16;26.70;;;14.20;;
45618;SDS011;31343;47.520;19.144;2022-12-07T04:11:42;24.08;;;14.98;;
45618;SDS011;31343;47.520;19.144;2022-12-07T04:14:08;27.80;;;13.73;;
45618;SDS011;31343;47.520;19.144;2022-12-07T04:16:48;24.55;;;13.77;;
45618;SDS011;31343;47.520;19.144;2022-12-07T04:19:19;24.75;;;14.27;;
45618;SDS011;31343;47.520;19.144;2022-12-07T04:21:46;27.17;;;13.75;;
45618;SDS011;31343;47.520;19.144;2022-12-07T04:24:13;23.00;;;13.15;;
45618;SDS011;31343;47.520;19.144;2022-12-07T04:26:39;19.63;;;12.82;;
45618;SDS011;31343;47.520;19.144;2022-12-07T04:29:07;23.08;;;13.02;;
45618;SDS011;31343;47.520;19.144;2022-12-07T04:31:33;18.05;;;12.15;;
45618;SDS011;31343;47.520;19.144;2022-12-07T04:33:59;23.65;;;14.10;;
45618;SDS011;31343;47.520;19.144;2022-12-07T04:36:25;22.95;;;13.10;;
45618;SDS011;31343;47.520;19.144;2022-12-07T04:38:52;19.63;;;12.75;;
45618;SDS011;31343;47.520;19.144;2022-12-07T04:41:19;24.58;;;14.15;;
45618;SDS011;31343;47.520;19.144;2022-12-07T04:43:52;25.33;;;14.40;;
45618;SDS011;31343;47.520;19.144;2022-12-07T04:46:28;24.13;;;12.77;;
45618;SDS011;31343;47.520;19.144;2022-12-07T04:48:56;22.55;;;13.52;;
45618;SDS011;31343;47.520;19.144;2022-12-07T04:51:24;22.20;;;12.80;;
45618;SDS011;31343;47.520;19.144;2022-12-07T04:53:51;25.55;;;13.60;;
45618;SDS011;31343;47.520;19.144;2022-12-07T04:56:17;22.48;;;14.25;;
45618;SDS011;31343;47.520;19.144;2022-12-07T04:58:44;20.15;;;13.15;;
45618;SDS011;31343;47.520;19.144;2022-12-07T05:01:10;22.90;;;13.52;;
45618;SDS011;31343;47.520;19.144;2022-12-07T05:03:37;25.00;;;14.45;;
45618;SDS011;31343;47.520;19.144;2022-12-07T05:06:03;19.10;;;12.35;;
45618;SDS011;31343;47.520;19.144;2022-12-07T05:08:29;24.08;;;13.95;;
45618;SDS011;31343;47.520;19.144;2022-12-07T05:10:55;23.45;;;13.05;;
45618;SDS011;31343;47.520;19.144;2022-12-07T05:13:21;22.65;;;13.77;;
45618;SDS011;31343;47.520;19.144;2022-12-07T05:15:47;23.05;;;13.07;;
45618;SDS011;31343;47.520;19.144;2022-12-07T05:18:13;22.00;;;13.75;;
45618;SDS011;31343;47.520;19.144;2022-12-07T05:20:39;25.35;;;14.32;;
45618;SDS011;31343;47.520;19.144;2022-12-07T05:23:05;19.52;;;12.10;;
45618;SDS011;31343;47.520;19.144;2022-12-07T05:25:31;24.95;;;13.43;;
45618;SDS011;31343;47.520;19.144;2022-12-07T05:27:57;22.17;;;12.40;;
45618;SDS011;31343;47.520;19.144;2022-12-07T05:30:23;21.27;;;11.88;;
45618;SDS011;31343;47.520;19.144;2022-12-07T05:32:49;17.63;;;11.38;;
45618;SDS011;31343;47.520;19.144;2022-12-07T05:35:15;19.38;;;12.32;;
45618;SDS011;31343;47.520;19.144;2022-12-07T05:37:41;17.98;;;12.05;;
45618;SDS011;31343;47.520;19.144;2022-12-07T05:40:07;20.25;;;12.60;;
45618;SDS011;31343;47.520;19.144;2022-12-07T05:42:33;21.30;;;12.98;;
45618;SDS011;31343;47.520;19.144;2022-12-07T05:44:59;20.80;;;12.52;;
45618;SDS011;31343;47.520;19.144;2022-12-07T05:47:25;20.58;;;12.55;;
45618;SDS011;31343;47.520;19.144;2022-12-07T05:49:50;24.83;;;13.88;;
45618;SDS011;31343;47.520;19.144;2022-12-07T05:52:16;22.48;;;13.63;;
45618;SDS011;31343;47.520;19.144;2022-12-07T05:54:42;22.10;;;14.02;;
45618;SDS011;31343;47.520;19.144;2022-12-07T05:57:08;23.70;;;15.55;;
45618;SDS011;31343;47.520;19.144;2022-12-07T05:59:33;20.27;;;13.93;;
45618;SDS011;31343;47.520;19.144;2022-12-07T06:02:06;24.25;;;14.10;;
45618;SDS011;31343;47.520;19.144;2022-12-07T06:07:00;20.10;;;12.82;;
45618;SDS011;31343;47.520;19.144;2022-12-07T06:09:27;23.50;;;13.63;;
45618;SDS011;31343;47.520;19.144;2022-12-07T06:11:53;24.33;;;13.40;;
45618;SDS011;31343;47.520;19.144;2022-12-07T06:14:38;21.70;;;13.30;;
45618;SDS011;31343;47.520;19.144;2022-12-07T06:17:04;22.50;;;13.35;;
45618;SDS011;31343;47.520;19.144;2022-12-07T06:19:30;21.60;;;12.73;;
45618;SDS011;31343;47.520;19.144;2022-12-07T06:21:56;24.17;;;12.45;;
45618;SDS011;31343;47.520;19.144;2022-12-07T06:24:22;25.48;;;13.38;;
45618;SDS011;31343;47.520;19.144;2022-12-07T06:26:48;22.08;;;12.68;;
45618;SDS011;31343;47.520;19.144;2022-12-07T06:29:14;24.83;;;13.30;;
45618;SDS011;31343;47.520;19.144;2022-12-07T06:31:41;21.15;;;11.80;;
45618;SDS011;31343;47.520;19.144;2022-12-07T06:34:09;24.70;;;13.68;;
45618;SDS011;31343;47.520;19.144;2022-12-07T06:36:37;26.13;;;13.02;;
45618;SDS011;31343;47.520;19.144;2022-12-07T06:39:03;25.55;;;13.88;;
45618;SDS011;31343;47.520;19.144;2022-12-07T06:41:29;23.65;;;14.45;;
45618;SDS011;31343;47.520;19.144;2022-12-07T06:43:55;26.63;;;14.77;;
45618;SDS011;31343;47.520;19.144;2022-12-07T06:46:21;35.75;;;19.20;;
45618;SDS011;31343;47.520;19.144;2022-12-07T06:48:46;28.95;;;16.95;;
45618;SDS011;31343;47.520;19.144;2022-12-07T06:51:12;22.73;;;15.05;;
45618;SDS011;31343;47.520;19.144;2022-12-07T06:53:38;24.58;;;14.82;;
45618;SDS011;31343;47.520;19.144;2022-12-07T06:56:04;30.73;;;15.63;;
45618;SDS011;31343;47.520;19.144;2022-12-07T06:58:30;28.45;;;15.30;;
45618;SDS011;31343;47.520;19.144;2022-12-07T07:00:56;26.63;;;14.98;;
45618;SDS011;31343;47.520;19.144;2022-12-07T07:03:22;24.92;;;15.75;;
45618;SDS011;31343;47.520;19.144;2022-12-07T07:05:47;28.20;;;16.02;;
45618;SDS011;31343;47.520;19.144;2022-12-07T07:08:14;27.98;;;16.52;;
45618;SDS011;31343;47.520;19.144;2022-12-07T07:10:40;27.15;;;16.42;;
45618;SDS011;31343;47.520;19.144;2022-12-07T07:13:06;27.30;;;15.63;;
45618;SDS011;31343;47.520;19.144;2022-12-07T07:15:32;28.05;;;15.85;;
45618;SDS011;31343;47.520;19.144;2022-12-07T07:17:59;29.05;;;15.27;;
45618;SDS011;31343;47.520;19.144;2022-12-07T07:20:25;26.75;;;16.13;;
45618;SDS011;31343;47.520;19.144;2022-12-07T07:22:53;29.02;;;16.48;;
45618;SDS011;31343;47.520;19.144;2022-12-07T07:25:20;28.40;;;16.83;;
45618;SDS011;31343;47.520;19.144;2022-12-07T07:27:46;27.42;;;15.85;;
45618;SDS011;31343;47.520;19.144;2022-12-07T07:30:11;34.42;;;15.80;;
45618;SDS011;31343;47.520;19.144;2022-12-07T07:32:37;27.92;;;14.88;;
45618;SDS011;31343;47.520;19.144;2022-12-07T07:35:03;27.88;;;15.77;;
45618;SDS011;31343;47.520;19.144;2022-12-07T07:37:29;28.50;;;16.38;;
45618;SDS011;31343;47.520;19.144;2022-12-07T07:39:54;31.67;;;16.42;;
45618;SDS011;31343;47.520;19.144;2022-12-07T07:42:20;29.08;;;15.93;;
45618;SDS011;31343;47.520;19.144;2022-12-07T07:44:46;28.98;;;16.48;;
45618;SDS011;31343;47.520;19.144;2022-12-07T07:47:11;29.00;;;17.75;;
45618;SDS011;31343;47.520;19.144;2022-12-07T07:49:37;29.35;;;17.08;;
45618;SDS011;31343;47.520;19.144;2022-12-07T07:52:03;23.92;;;15.38;;
45618;SDS011;31343;47.520;19.144;2022-12-07T07:54:30;27.17;;;15.23;;
45618;SDS011;31343;47.520;19.144;2022-12-07T07:56:57;23.08;;;14.48;;
45618;SDS011;31343;47.520;19.144;2022-12-07T07:59:23;29.83;;;15.32;;
45618;SDS011;31343;47.520;19.144;2022-12-07T08:01:50;27.88;;;15.27;;
45618;SDS011;31343;47.520;19.144;2022-12-07T08:04:15;20.80;;;13.30;;
45618;SDS011;31343;47.520;19.144;2022-12-07T08:06:41;23.63;;;13.95;;
45618;SDS011;31343;47.520;19.144;2022-12-07T08:09:07;22.55;;;13.90;;
45618;SDS011;31343;47.520;19.144;2022-12-07T08:11:34;24.55;;;14.23;;
45618;SDS011;31343;47.520;19.144;2022-12-07T08:14:01;19.52;;;13.65;;
45618;SDS011;31343;47.520;19.144;2022-12-07T08:16:27;22.35;;;13.77;;
45618;SDS011;31343;47.520;19.144;2022-12-07T08:18:52;24.02;;;14.25;;
45618;SDS011;31343;47.520;19.144;2022-12-07T08:21:18;24.60;;;13.43;;
45618;SDS011;31343;47.520;19.144;2022-12-07T08:23:44;22.02;;;13.10;;
45618;SDS011;31343;47.520;19.144;2022-12-07T08:26:11;26.60;;;15.27;;
45618;SDS011;31343;47.520;19.144;2022-12-07T08:28:39;23.98;;;13.88;;
45618;SDS011;31343;47.520;19.144;2022-12-07T08:31:06;25.33;;;13.18;;
45618;SDS011;31343;47.520;19.144;2022-12-07T08:33:34;22.55;;;13.55;;
45618;SDS011;31343;47.520;19.144;2022-12-07T08:36:01;32.15;;;16.20;;
45618;SDS011;31343;47.520;19.144;2022-12-07T08:38:32;23.48;;;13.70;;
45618;SDS011;31343;47.520;19.144;2022-12-07T08:40:59;22.83;;;14.30;;
45618;SDS011;31343;47.520;19.144;2022-12-07T08:43:25;22.60;;;14.02;;
45618;SDS011;31343;47.520;19.144;2022-12-07T08:45:56;24.83;;;14.20;;
45618;SDS011;31343;47.520;19.144;2022-12-07T08:48:37;24.98;;;13.93;;
45618;SDS011;31343;47.520;19.144;2022-12-07T08:51:05;27.10;;;14.43;;
45618;SDS011;31343;47.520;19.144;2022-12-07T08:53:32;21.63;;;14.60;;
45618;SDS011;31343;47.520;19.144;2022-12-07T08:55:59;27.85;;;14.98;;
45618;SDS011;31343;47.520;19.144;2022-12-07T08:58:25;27.45;;;15.32;;
45618;SDS011;31343;47.520;19.144;2022-12-07T09:00:51;23.90;;;14.57;;
45618;SDS011;31343;47.520;19.144;2022-12-07T09:03:17;24.25;;;14.80;;
45618;SDS011;31343;47.520;19.144;2022-12-07T09:05:43;23.90;;;13.50;;
45618;SDS011;31343;47.520;19.144;2022-12-07T09:08:09;22.85;;;13.80;;
45618;SDS011;31343;47.520;19.144;2022-12-07T09:10:35;21.52;;;12.60;;
45618;SDS011;31343;47.520;19.144;2022-12-07T09:13:01;19.70;;;12.30;;
45618;SDS011;31343;47.520;19.144;2022-12-07T09:15:27;16.60;;;11.15;;
45618;SDS011;31343;47.520;19.144;2022-12-07T09:17:54;18.92;;;12.23;;
45618;SDS011;31343;47.520;19.144;2022-12-07T09:20:20;16.35;;;10.48;;
45618;SDS011;31343;47.520;19.144;2022-12-07T09:22:45;18.67;;;11.63;;
45618;SDS011;31343;47.520;19.144;2022-12-07T09:25:12;18.63;;;11.35;;
45618;SDS011;31343;47.520;19.144;2022-12-07T09:27:37;14.30;;;8.75;;
45618;SDS011;31343;47.520;19.144;2022-12-07T09:30:04;15.07;;;9.48;;
45618;SDS011;31343;47.520;19.144;2022-12-07T09:32:30;14.50;;;9.05;;
45618;SDS011;31343;47.520;19.144;2022-12-07T09:34:56;14.90;;;9.13;;
45618;SDS011;31343;47.520;19.144;2022-12-07T09:37:21;20.05;;;10.50;;
45618;SDS011;31343;47.520;19.144;2022-12-07T09:39:47;15.60;;;10.50;;
45618;SDS011;31343;47.520;19.144;2022-12-07T09:42:35;16.67;;;10.90;;
45618;SDS011;31343;47.520;19.144;2022-12-07T09:45:01;17.60;;;10.70;;
45618;SDS011;31343;47.520;19.144;2022-12-07T09:47:30;17.40;;;10.10;;
45618;SDS011;31343;47.520;19.144;2022-12-07T09:50:00;17.10;;;10.88;;
45618;SDS011;31343;47.520;19.144;2022-12-07T09:52:30;16.17;;;9.50;;
45618;SDS011;31343;47.520;19.144;2022-12-07T09:54:57;15.85;;;10.80;;
45618;SDS011;31343;47.520;19.144;2022-12-07T09:57:30;13.77;;;9.25;;
45618;SDS011;31343;47.520;19.144;2022-12-07T10:00:00;14.30;;;8.75;;
45618;SDS011;31343;47.520;19.144;2022-12-07T10:02:38;13.82;;;7.88;;
45618;SDS011;31343;47.520;19.144;2022-12-07T10:05:09;13.48;;;7.82;;
45618;SDS011;31343;47.520;19.144;2022-12-07T10:07:38;11.02;;;7.05;;
45618;SDS011;31343;47.520;19.144;2022-12-07T10:10:06;10.73;;;7.03;;
45618;SDS011;31343;47.520;19.144;2022-12-07T10:12:58;12.18;;;6.68;;
45618;SDS011;31343;47.520;19.144;2022-12-07T10:18:21;9.63;;;7.32;;
45618;SDS011;31343;47.520;19.144;2022-12-07T10:24:05;11.23;;;6.22;;
45618;SDS011;31343;47.520;19.144;2022-12-07T10:34:26;7.93;;;4.85;;
45618;SDS011;31343;47.520;19.144;2022-12-07T10:37:07;7.93;;;4.95;;
45618;SDS011;31343;47.520;19.144;2022-12-07T10:39:48;7.70;;;4.22;;
45618;SDS011;31343;47.520;19.144;2022-12-07T10:42:19;6.00;;;4.45;;
45618;SDS011;31343;47.520;19.144;2022-12-07T10:44:46;6.85;;;3.97;;
45618;SDS011;31343;47.520;19.144;2022-12-07T11:04:18;6.55;;;4.28;;
45618;SDS011;31343;47.520;19.144;2022-12-07T11:11:59;7.18;;;4.43;;
45618;SDS011;31343;47.520;19.144;2022-12-07T11:14:40;7.15;;;3.97;;
45618;SDS011;31343;47.520;19.144;2022-12-07T11:17:17;8.13;;;4.45;;
45618;SDS011;31343;47.520;19.144;2022-12-07T11:20:13;5.97;;;3.42;;
45618;SDS011;31343;47.520;19.144;2022-12-07T11:39:04;6.68;;;4.13;;
45618;SDS011;31343;47.520;19.144;2022-12-07T11:42:02;6.32;;;4.00;;
45618;SDS011;31343;47.520;19.144;2022-12-07T11:44:55;5.90;;;3.80;;
45618;SDS011;31343;47.520;19.144;2022-12-07T11:47:34;7.93;;;4.85;;
45618;SDS011;31343;47.520;19.144;2022-12-07T11:50:27;6.00;;;4.00;;
45618;SDS011;31343;47.520;19.144;2022-12-07T12:06:26;7.50;;;4.28;;
45618;SDS011;31343;47.520;19.144;2022-12-07T12:08:57;6.55;;;4.72;;
45618;SDS011;31343;47.520;19.144;2022-12-07T12:14:08;7.20;;;4.85;;
45618;SDS011;31343;47.520;19.144;2022-12-07T12:20:29;6.07;;;3.65;;
45618;SDS011;31343;47.520;19.144;2022-12-07T12:25:38;6.45;;;3.75;;
45618;SDS011;31343;47.520;19.144;2022-12-07T12:28:18;6.28;;;3.88;;
45618;SDS011;31343;47.520;19.144;2022-12-07T12:33:37;6.80;;;3.60;;
45618;SDS011;31343;47.520;19.144;2022-12-07T12:36:23;8.25;;;4.10;;
45618;SDS011;31343;47.520;19.144;2022-12-07T12:38:51;6.85;;;3.70;;
45618;SDS011;31343;47.520;19.144;2022-12-07T12:55:00;8.40;;;5.43;;
45618;SDS011;31343;47.520;19.144;2022-12-07T12:57:38;8.98;;;4.47;;
45618;SDS011;31343;47.520;19.144;2022-12-07T13:00:22;9.10;;;5.07;;
45618;SDS011;31343;47.520;19.144;2022-12-07T13:02:58;7.80;;;4.70;;
45618;SDS011;31343;47.520;19.144;2022-12-07T13:05:25;8.05;;;5.43;;
45618;SDS011;31343;47.520;19.144;2022-12-07T13:07:56;7.60;;;4.88;;
45618;SDS011;31343;47.520;19.144;2022-12-07T13:15:39;6.88;;;4.10;;
45618;SDS011;31343;47.520;19.144;2022-12-07T13:18:56;7.57;;;4.80;;
45618;SDS011;31343;47.520;19.144;2022-12-07T13:20:57;6.78;;;4.45;;
45618;SDS011;31343;47.520;19.144;2022-12-07T13:26:19;5.70;;;4.00;;
45618;SDS011;31343;47.520;19.144;2022-12-07T13:28:50;7.25;;;4.68;;
45618;SDS011;31343;47.520;19.144;2022-12-07T13:34:01;5.57;;;3.72;;
45618;SDS011;31343;47.520;19.144;2022-12-07T13:36:32;6.13;;;3.55;;
45618;SDS011;31343;47.520;19.144;2022-12-07T13:41:41;5.15;;;3.33;;
45618;SDS011;31343;47.520;19.144;2022-12-07T13:44:14;7.35;;;3.90;;
45618;SDS011;31343;47.520;19.144;2022-12-07T13:49:52;7.68;;;4.25;;
45618;SDS011;31343;47.520;19.144;2022-12-07T13:54:55;6.13;;;3.72;;
45618;SDS011;31343;47.520;19.144;2022-12-07T13:57:26;7.03;;;4.25;;
45618;SDS011;31343;47.520;19.144;2022-12-07T13:59:55;6.47;;;4.13;;
45618;SDS011;31343;47.520;19.144;2022-12-07T14:02:26;8.50;;;5.00;;
45618;SDS011;31343;47.520;19.144;2022-12-07T14:05:15;7.93;;;5.15;;
45618;SDS011;31343;47.520;19.144;2022-12-07T14:07:52;9.68;;;4.93;;
45618;SDS011;31343;47.520;19.144;2022-12-07T14:10:31;7.88;;;5.38;;
45618;SDS011;31343;47.520;19.144;2022-12-07T14:12:59;8.88;;;5.57;;
45618;SDS011;31343;47.520;19.144;2022-12-07T14:15:32;12.00;;;6.18;;
45618;SDS011;31343;47.520;19.144;2022-12-07T14:18:00;9.00;;;5.13;;
45618;SDS011;31343;47.520;19.144;2022-12-07T14:23:19;9.43;;;5.30;;
45618;SDS011;31343;47.520;19.144;2022-12-07T14:25:49;8.73;;;5.50;;
45618;SDS011;31343;47.520;19.144;2022-12-07T14:28:27;9.90;;;5.55;;
45618;SDS011;31343;47.520;19.144;2022-12-07T14:30:55;7.75;;;4.88;;
45618;SDS011;31343;47.520;19.144;2022-12-07T14:33:21;8.98;;;5.38;;
45618;SDS011;31343;47.520;19.144;2022-12-07T14:35:47;9.00;;;5.85;;
45618;SDS011;31343;47.520;19.144;2022-12-07T14:38:14;9.57;;;5.85;;
45618;SDS011;31343;47.520;19.144;2022-12-07T14:40:40;9.57;;;5.80;;
45618;SDS011;31343;47.520;19.144;2022-12-07T14:43:08;9.93;;;5.43;;
45618;SDS011;31343;47.520;19.144;2022-12-07T14:45:36;8.45;;;5.72;;
45618;SDS011;31343;47.520;19.144;2022-12-07T14:48:02;9.02;;;4.93;;
45618;SDS011;31343;47.520;19.144;2022-12-07T14:50:28;9.00;;;5.75;;
45618;SDS011;31343;47.520;19.144;2022-12-07T14:53:01;7.90;;;5.10;;
45618;SDS011;31343;47.520;19.144;2022-12-07T14:55:35;7.78;;;5.68;;
45618;SDS011;31343;47.520;19.144;2022-12-07T14:58:01;9.43;;;5.07;;
45618;SDS011;31343;47.520;19.144;2022-12-07T15:00:27;8.90;;;5.05;;
45618;SDS011;31343;47.520;19.144;2022-12-07T15:02:53;11.07;;;6.00;;
45618;SDS011;31343;47.520;19.144;2022-12-07T15:05:20;9.18;;;5.70;;
45618;SDS011;31343;47.520;19.144;2022-12-07T15:07:46;8.10;;;5.03;;
45618;SDS011;31343;47.520;19.144;2022-12-07T15:10:14;10.60;;;6.18;;
45618;SDS011;31343;47.520;19.144;2022-12-07T15:12:43;9.50;;;5.35;;
45618;SDS011;31343;47.520;19.144;2022-12-07T15:15:09;8.95;;;5.40;;
45618;SDS011;31343;47.520;19.144;2022-12-07T15:17:35;8.80;;;5.82;;
45618;SDS011;31343;47.520;19.144;2022-12-07T15:20:00;11.60;;;6.18;;
45618;SDS011;31343;47.520;19.144;2022-12-07T15:22:26;12.00;;;5.53;;
45618;SDS011;31343;47.520;19.144;2022-12-07T15:24:52;8.68;;;5.43;;
45618;SDS011;31343;47.520;19.144;2022-12-07T15:27:18;13.13;;;5.88;;
45618;SDS011;31343;47.520;19.144;2022-12-07T15:29:43;7.82;;;4.95;;
45618;SDS011;31343;47.520;19.144;2022-12-07T15:32:09;10.10;;;5.38;;
45618;SDS011;31343;47.520;19.144;2022-12-07T15:34:35;12.32;;;6.18;;
45618;SDS011;31343;47.520;19.144;2022-12-07T15:37:01;8.55;;;5.93;;
45618;SDS011;31343;47.520;19.144;2022-12-07T15:39:28;10.18;;;5.50;;
45618;SDS011;31343;47.520;19.144;2022-12-07T15:41:53;9.05;;;5.90;;
45618;SDS011;31343;47.520;19.144;2022-12-07T15:44:19;10.65;;;5.70;;
45618;SDS011;31343;47.520;19.144;2022-12-07T15:47:04;12.63;;;6.40;;
45618;SDS011;31343;47.520;19.144;2022-12-07T15:49:30;12.38;;;6.78;;
45618;SDS011;31343;47.520;19.144;2022-12-07T15:51:56;11.40;;;6.85;;
45618;SDS011;31343;47.520;19.144;2022-12-07T15:54:23;13.98;;;8.05;;
45618;SDS011;31343;47.520;19.144;2022-12-07T15:56:51;11.88;;;6.20;;
45618;SDS011;31343;47.520;19.144;2022-12-07T15:59:17;8.98;;;5.97;;
45618;SDS011;31343;47.520;19.144;2022-12-07T16:01:43;14.55;;;8.05;;
45618;SDS011;31343;47.520;19.144;2022-12-07T16:04:09;12.32;;;7.75;;
45618;SDS011;31343;47.520;19.144;2022-12-07T16:06:35;12.52;;;6.18;;
45618;SDS011;31343;47.520;19.144;2022-12-07T16:09:00;14.38;;;6.93;;
45618;SDS011;31343;47.520;19.144;2022-12-07T16:11:26;13.35;;;7.47;;
45618;SDS011;31343;47.520;19.144;2022-12-07T16:13:52;12.60;;;6.68;;
45618;SDS011;31343;47.520;19.144;2022-12-07T16:16:18;12.93;;;7.65;;
45618;SDS011;31343;47.520;19.144;2022-12-07T16:18:47;12.80;;;7.07;;
45618;SDS011;31343;47.520;19.144;2022-12-07T16:21:14;14.00;;;7.40;;
45618;SDS011;31343;47.520;19.144;2022-12-07T16:23:40;13.15;;;7.43;;
45618;SDS011;31343;47.520;19.144;2022-12-07T16:26:16;15.32;;;7.68;;
45618;SDS011;31343;47.520;19.144;2022-12-07T16:28:44;12.55;;;7.25;;
45618;SDS011;31343;47.520;19.144;2022-12-07T16:31:11;11.82;;;7.03;;
45618;SDS011;31343;47.520;19.144;2022-12-07T16:33:39;16.13;;;7.68;;
45618;SDS011;31343;47.520;19.144;2022-12-07T16:36:06;13.90;;;7.25;;
45618;SDS011;31343;47.520;19.144;2022-12-07T16:38:33;12.23;;;7.18;;
45618;SDS011;31343;47.520;19.144;2022-12-07T16:41:00;14.98;;;7.57;;
45618;SDS011;31343;47.520;19.144;2022-12-07T16:43:26;13.25;;;7.13;;
45618;SDS011;31343;47.520;19.144;2022-12-07T16:45:52;12.43;;;7.00;;
45618;SDS011;31343;47.520;19.144;2022-12-07T16:48:17;11.75;;;6.10;;
45618;SDS011;31343;47.520;19.144;2022-12-07T16:50:43;15.23;;;7.93;;
45618;SDS011;31343;47.520;19.144;2022-12-07T16:53:10;14.13;;;7.18;;
45618;SDS011;31343;47.520;19.144;2022-12-07T16:55:37;14.00;;;7.95;;
45618;SDS011;31343;47.520;19.144;2022-12-07T16:58:04;13.10;;;6.78;;
45618;SDS011;31343;47.520;19.144;2022-12-07T17:00:30;12.60;;;7.35;;
45618;SDS011;31343;47.520;19.144;2022-12-07T17:02:56;16.27;;;8.35;;
45618;SDS011;31343;47.520;19.144;2022-12-07T17:05:22;16.02;;;8.07;;